createdAt,value
2018-12-23T00:00:55.768Z,15.93
2018-12-23T00:03:23.209Z,15.30
2018-12-23T00:05:50.639Z,15.60
2018-12-23T00:08:18.378Z,15.83
2018-12-23T00:10:45.973Z,14.90
2018-12-23T00:13:13.485Z,15.00
2018-12-23T00:15:40.933Z,14.53
2018-12-23T00:18:08.338Z,15.10
2018-12-23T00:20:36.073Z,14.87
2018-12-23T00:23:03.535Z,15.07
2018-12-23T00:25:31.405Z,14.50
2018-12-23T00:27:58.848Z,14.50
2018-12-23T00:30:26.312Z,14.90
2018-12-23T00:32:54.056Z,14.97
2018-12-23T00:35:21.828Z,15.70
2018-12-23T00:37:49.417Z,16.10
2018-12-23T00:40:16.954Z,15.03
2018-12-23T00:42:44.416Z,14.97
2018-12-23T00:45:11.877Z,15.57
2018-12-23T00:47:39.284Z,17.47
2018-12-23T00:50:07.574Z,16.47
2018-12-23T00:52:35.073Z,16.97
2018-12-23T00:55:02.479Z,16.90
2018-12-23T00:57:30.387Z,15.30
2018-12-23T00:59:57.980Z,16.07
2018-12-23T01:02:25.717Z,15.40
2018-12-23T01:04:53.176Z,17.13
2018-12-23T01:07:20.815Z,15.67
2018-12-23T01:09:48.324Z,17.03
2018-12-23T01:12:15.717Z,17.40
2018-12-23T01:14:43.418Z,18.03
2018-12-23T01:17:11.002Z,17.43
2018-12-23T01:19:38.657Z,18.60
2018-12-23T01:22:06.090Z,16.90
2018-12-23T01:24:33.552Z,18.23
2018-12-23T01:27:00.940Z,16.90
2018-12-23T01:29:28.396Z,18.20
2018-12-23T01:31:55.841Z,18.90
2018-12-23T01:34:23.245Z,18.17
2018-12-23T01:36:50.633Z,17.47
2018-12-23T01:39:18.399Z,17.40
2018-12-23T01:41:46.033Z,17.10
2018-12-23T01:44:13.507Z,19.47
2018-12-23T01:46:40.909Z,17.90
2018-12-23T01:49:08.385Z,17.00
2018-12-23T01:51:35.790Z,17.80
2018-12-23T01:54:03.557Z,16.60
2018-12-23T01:56:31.000Z,17.10
2018-12-23T01:58:58.385Z,18.23
2018-12-23T02:01:25.973Z,17.33
2018-12-23T02:03:53.589Z,17.00
2018-12-23T02:06:21.214Z,18.13
2018-12-23T02:08:48.719Z,17.70
2018-12-23T02:11:16.149Z,19.43
2018-12-23T02:13:43.612Z,16.40
2018-12-23T02:16:11.084Z,18.10
2018-12-23T02:18:38.536Z,17.87
2018-12-23T02:21:05.984Z,17.53
2018-12-23T02:23:33.451Z,18.37
2018-12-23T02:26:00.935Z,17.83
2018-12-23T02:28:28.488Z,18.27
2018-12-23T02:30:56.226Z,19.13
2018-12-23T02:33:23.693Z,18.90
2018-12-23T02:35:55.498Z,18.30
2018-12-23T02:38:21.023Z,19.90
2018-12-23T02:40:48.424Z,19.83
2018-12-23T02:43:16.381Z,19.20
2018-12-23T02:45:43.777Z,19.03
2018-12-23T02:48:11.700Z,18.80
2018-12-23T02:50:39.169Z,18.40
2018-12-23T02:53:06.803Z,20.50
2018-12-23T02:55:34.248Z,19.27
2018-12-23T02:58:01.673Z,20.13
2018-12-23T03:00:29.185Z,18.77
2018-12-23T03:02:56.584Z,20.43
2018-12-23T03:05:24.316Z,18.63
2018-12-23T03:07:52.050Z,19.07
2018-12-23T03:10:19.500Z,20.53
2018-12-23T03:12:47.044Z,20.77
2018-12-23T03:15:14.519Z,20.30
2018-12-23T03:17:41.977Z,19.70
2018-12-23T03:20:09.418Z,20.60
2018-12-23T03:22:37.333Z,19.60
2018-12-23T03:25:04.880Z,20.77
2018-12-23T03:27:32.282Z,19.37
2018-12-23T03:29:59.704Z,22.20
2018-12-23T03:32:27.106Z,21.53
2018-12-23T03:34:54.581Z,21.07
2018-12-23T03:37:22.012Z,21.90
2018-12-23T03:39:49.409Z,20.50
2018-12-23T03:42:16.793Z,20.40
2018-12-23T03:44:44.190Z,19.93
2018-12-23T03:47:11.841Z,21.10
2018-12-23T03:49:39.380Z,21.40
2018-12-23T03:52:06.827Z,19.87
2018-12-23T03:54:34.379Z,22.03
2018-12-23T03:57:02.556Z,21.13
2018-12-23T03:59:30.430Z,21.07
2018-12-23T04:01:57.868Z,21.43
2018-12-23T04:04:25.261Z,22.70
2018-12-23T04:06:52.939Z,21.27
2018-12-23T04:09:20.338Z,22.77
2018-12-23T04:11:48.125Z,22.70
2018-12-23T04:14:15.529Z,24.47
2018-12-23T04:16:43.250Z,22.30
2018-12-23T04:19:10.955Z,25.77
2018-12-23T04:21:38.388Z,24.33
2018-12-23T04:24:05.801Z,24.60
2018-12-23T04:26:33.477Z,24.57
2018-12-23T04:29:01.218Z,24.33
2018-12-23T04:31:28.615Z,25.13
2018-12-23T04:33:56.005Z,25.87
2018-12-23T04:36:23.401Z,25.67
2018-12-23T04:38:51.175Z,25.30
2018-12-23T04:41:18.640Z,26.83
2018-12-23T04:43:46.345Z,27.17
2018-12-23T04:46:13.795Z,27.10
2018-12-23T04:48:41.257Z,26.80
2018-12-23T04:51:08.656Z,28.70
2018-12-23T04:53:36.338Z,28.23
2018-12-23T04:56:03.914Z,27.07
2018-12-23T04:58:31.458Z,26.37
2018-12-23T05:00:58.936Z,27.63
2018-12-23T05:03:26.396Z,25.03
2018-12-23T05:05:53.825Z,26.20
2018-12-23T05:08:21.222Z,27.20
2018-12-23T05:10:48.901Z,26.13
2018-12-23T05:13:16.514Z,25.57
2018-12-23T05:15:43.902Z,25.77
2018-12-23T05:18:11.303Z,25.73
2018-12-23T05:20:39.188Z,25.87
2018-12-23T05:23:06.722Z,25.07
2018-12-23T05:25:34.405Z,24.60
2018-12-23T05:28:01.969Z,23.17
2018-12-23T05:30:29.426Z,24.17
2018-12-23T05:32:56.881Z,23.97
2018-12-23T05:35:24.277Z,23.10
2018-12-23T05:37:51.754Z,23.27
2018-12-23T05:40:19.157Z,22.20
2018-12-23T05:42:46.623Z,23.10
2018-12-23T05:45:14.169Z,21.47
2018-12-23T05:47:42.041Z,22.07
2018-12-23T05:50:09.906Z,21.70
2018-12-23T05:52:37.302Z,21.53
2018-12-23T05:55:04.813Z,21.53
2018-12-23T05:57:32.341Z,20.80
2018-12-23T05:59:59.735Z,20.57
2018-12-23T06:02:27.335Z,20.10
2018-12-23T06:04:54.729Z,20.10
2018-12-23T06:07:22.248Z,19.67
2018-12-23T06:09:49.709Z,20.50
2018-12-23T06:12:17.099Z,20.90
2018-12-23T06:14:44.571Z,21.60
2018-12-23T06:17:12.032Z,18.63
2018-12-23T06:19:39.732Z,19.30
2018-12-23T06:22:07.267Z,19.33
2018-12-23T06:24:34.745Z,19.67
2018-12-23T06:27:02.133Z,19.43
2018-12-23T06:29:29.838Z,20.00
2018-12-23T06:31:57.438Z,19.27
2018-12-23T06:34:25.001Z,19.57
2018-12-23T06:36:52.482Z,19.80
2018-12-23T06:39:19.881Z,19.13
2018-12-23T06:41:47.269Z,17.93
2018-12-23T06:44:14.919Z,19.20
2018-12-23T06:46:42.379Z,19.47
2018-12-23T06:49:09.906Z,17.57
2018-12-23T06:51:37.404Z,19.17
2018-12-23T06:54:04.865Z,18.60
2018-12-23T06:56:32.395Z,18.60
2018-12-23T06:58:59.794Z,19.70
2018-12-23T07:01:27.181Z,17.80
2018-12-23T07:03:54.731Z,16.80
2018-12-23T07:06:22.119Z,16.17
2018-12-23T07:08:50.203Z,17.53
2018-12-23T07:11:17.836Z,18.47
2018-12-23T07:13:45.226Z,17.83
2018-12-23T07:16:12.753Z,18.43
2018-12-23T07:18:40.209Z,18.17
2018-12-23T07:21:07.682Z,17.93
2018-12-23T07:23:35.078Z,17.60
2018-12-23T07:26:02.524Z,17.50
2018-12-23T07:28:29.924Z,16.73
2018-12-23T07:30:57.321Z,16.60
2018-12-23T07:33:24.718Z,17.33
2018-12-23T07:35:52.182Z,18.00
2018-12-23T07:38:19.708Z,18.00
2018-12-23T07:40:47.104Z,17.13
2018-12-23T07:43:14.500Z,17.40
2018-12-23T07:45:41.970Z,17.13
2018-12-23T07:48:09.702Z,16.80
2018-12-23T07:50:37.093Z,16.70
2018-12-23T07:53:04.535Z,16.20
2018-12-23T07:55:32.066Z,16.50
2018-12-23T07:57:59.453Z,16.80
2018-12-23T08:00:27.128Z,16.50
2018-12-23T08:02:54.525Z,16.33
2018-12-23T08:05:22.369Z,16.10
2018-12-23T08:07:49.845Z,17.17
2018-12-23T08:10:17.642Z,15.97
2018-12-23T08:12:45.233Z,14.43
2018-12-23T08:15:12.755Z,16.47
2018-12-23T08:17:40.140Z,16.23
2018-12-23T08:20:07.789Z,14.70
2018-12-23T08:22:35.337Z,15.53
2018-12-23T08:25:02.808Z,16.03
2018-12-23T08:27:30.248Z,14.43
2018-12-23T08:29:57.706Z,15.00
2018-12-23T08:32:25.165Z,14.77
2018-12-23T08:34:52.812Z,15.10
2018-12-23T08:37:20.204Z,14.87
2018-12-23T08:39:47.585Z,14.43
2018-12-23T08:42:15.009Z,14.80
2018-12-23T08:44:42.581Z,15.00
2018-12-23T08:47:10.308Z,14.90
2018-12-23T08:49:37.767Z,13.90
2018-12-23T08:52:05.153Z,14.07
2018-12-23T08:54:32.629Z,14.07
2018-12-23T08:57:00.154Z,14.33
2018-12-23T08:59:27.539Z,13.90
2018-12-23T09:01:55.466Z,14.20
2018-12-23T09:04:23.012Z,13.60
2018-12-23T09:06:50.413Z,11.83
2018-12-23T09:09:17.842Z,12.40
2018-12-23T09:11:45.297Z,13.83
2018-12-23T09:14:12.761Z,12.63
2018-12-23T09:16:40.139Z,13.17
2018-12-23T09:19:07.534Z,12.20
2018-12-23T09:21:35.537Z,12.20
2018-12-23T09:24:03.035Z,12.90
2018-12-23T09:26:30.866Z,13.00
2018-12-23T09:28:58.556Z,12.40
2018-12-23T09:31:25.940Z,11.47
2018-12-23T09:33:53.502Z,12.57
2018-12-23T09:36:20.975Z,12.43
2018-12-23T09:38:48.643Z,13.03
2018-12-23T09:41:16.077Z,11.73
2018-12-23T09:43:43.476Z,11.77
2018-12-23T09:46:10.933Z,11.60
2018-12-23T09:48:38.388Z,12.20
2018-12-23T09:51:05.784Z,11.03
2018-12-23T09:53:33.724Z,11.70
2018-12-23T09:56:01.307Z,11.70
2018-12-23T09:58:28.684Z,11.77
2018-12-23T10:00:56.220Z,11.87
2018-12-23T10:03:23.612Z,11.73
2018-12-23T10:05:50.999Z,11.50
2018-12-23T10:08:18.393Z,11.07
2018-12-23T10:10:45.919Z,11.30
2018-12-23T10:13:13.364Z,12.07
2018-12-23T10:15:40.762Z,11.10
2018-12-23T10:18:08.696Z,11.40
2018-12-23T10:20:36.102Z,11.00
2018-12-23T10:23:03.757Z,10.87
2018-12-23T10:25:31.154Z,10.40
2018-12-23T10:27:58.933Z,10.33
2018-12-23T10:30:26.767Z,10.30
2018-12-23T10:32:54.246Z,10.50
2018-12-23T10:35:21.726Z,10.40
2018-12-23T10:37:49.109Z,9.93
2018-12-23T10:40:16.916Z,9.73
2018-12-23T10:42:44.313Z,10.03
2018-12-23T10:45:11.728Z,10.90
2018-12-23T10:47:39.125Z,10.37
2018-12-23T10:50:07.278Z,10.70
2018-12-23T10:52:35.152Z,10.53
2018-12-23T10:55:02.831Z,11.00
2018-12-23T10:57:30.389Z,10.90
2018-12-23T10:59:57.943Z,10.60
2018-12-23T11:02:25.333Z,10.80
2018-12-23T11:04:52.725Z,10.83
2018-12-23T11:07:20.109Z,10.90
2018-12-23T11:09:47.762Z,12.07
2018-12-23T11:12:15.230Z,11.57
2018-12-23T11:14:42.866Z,12.23
2018-12-23T11:17:10.957Z,11.93
2018-12-23T11:19:38.533Z,13.10
2018-12-23T11:22:06.046Z,12.23
2018-12-23T11:24:33.448Z,12.83
2018-12-23T11:27:01.224Z,13.10
2018-12-23T11:29:28.772Z,12.97
2018-12-23T11:31:56.242Z,13.17
2018-12-23T11:34:23.696Z,12.93
2018-12-23T11:36:51.094Z,13.30
2018-12-23T11:39:18.746Z,14.50
2018-12-23T11:41:46.133Z,13.23
2018-12-23T11:44:13.801Z,12.97
2018-12-23T11:46:41.251Z,13.90
2018-12-23T11:49:08.811Z,12.57
2018-12-23T11:51:36.315Z,13.50
2018-12-23T11:54:03.946Z,14.03
2018-12-23T11:56:31.337Z,13.97
2018-12-23T11:58:58.945Z,13.73
2018-12-23T12:01:26.413Z,14.43
2018-12-23T12:03:53.873Z,13.10
2018-12-23T12:06:21.385Z,13.33
2018-12-23T12:08:48.857Z,13.33
2018-12-23T12:11:16.643Z,14.13
2018-12-23T12:13:44.024Z,14.40
2018-12-23T12:16:11.557Z,14.00
2018-12-23T12:18:39.033Z,13.10
2018-12-23T12:21:38.152Z,14.30
2018-12-23T12:24:07.046Z,14.63
2018-12-23T12:26:35.780Z,13.40
2018-12-23T12:29:04.289Z,13.10
2018-12-23T12:31:32.869Z,13.80
2018-12-23T12:34:01.767Z,13.53
2018-12-23T12:36:30.277Z,14.10
2018-12-23T12:38:58.820Z,13.30
2018-12-23T12:41:28.242Z,14.00
2018-12-23T12:43:56.871Z,13.90
2018-12-23T12:46:25.364Z,14.30
2018-12-23T12:48:53.942Z,13.87
2018-12-23T12:51:22.468Z,14.10
2018-12-23T12:53:51.202Z,15.30
2018-12-23T12:56:19.965Z,14.03
2018-12-23T12:58:48.472Z,15.00
2018-12-23T13:01:16.953Z,15.27
2018-12-23T13:03:45.471Z,14.30
2018-12-23T13:06:14.293Z,15.27
2018-12-23T13:08:42.794Z,14.97
2018-12-23T13:11:11.686Z,15.43
2018-12-23T13:13:40.562Z,14.17
2018-12-23T13:16:09.076Z,13.17
2018-12-23T13:18:37.560Z,14.00
2018-12-23T13:21:06.057Z,13.80
2018-12-23T13:23:34.682Z,13.20
2018-12-23T13:26:03.288Z,12.90
2018-12-23T13:28:31.773Z,12.80
2018-12-23T13:31:00.548Z,15.03
2018-12-23T13:33:29.043Z,13.30
2018-12-23T13:35:57.736Z,13.47
2018-12-23T13:38:26.288Z,14.00
2018-12-23T13:41:00.841Z,15.00
2018-12-23T13:43:32.776Z,15.60
2018-12-23T13:46:10.198Z,14.73
2018-12-23T13:49:10.343Z,15.50
2018-12-23T13:51:53.766Z,15.30
2018-12-23T13:54:43.588Z,14.70
2018-12-23T13:57:17.948Z,15.23
2018-12-23T13:59:52.192Z,15.83
2018-12-23T14:02:29.453Z,14.80
2018-12-23T14:05:15.770Z,13.87
2018-12-23T14:07:53.263Z,15.10
2018-12-23T14:11:09.153Z,15.13
2018-12-23T14:13:58.049Z,15.30
2018-12-23T14:16:59.810Z,14.63
2018-12-23T14:20:26.468Z,15.40
2018-12-23T14:22:57.364Z,14.47
2018-12-23T14:25:51.684Z,14.93
2018-12-23T14:28:55.353Z,16.27
2018-12-23T14:31:50.355Z,13.90
2018-12-23T14:34:41.790Z,14.53
2018-12-23T14:37:14.546Z,14.03
2018-12-23T14:42:58.779Z,14.93
2018-12-23T14:45:55.809Z,15.67
2018-12-23T14:48:30.445Z,15.20
2018-12-23T14:58:28.327Z,15.20
2018-12-23T15:06:59.686Z,15.07
2018-12-23T15:09:48.286Z,15.47
2018-12-23T15:12:25.121Z,14.93
2018-12-23T15:15:30.322Z,14.70
2018-12-23T15:18:44.728Z,13.90
2018-12-23T15:21:06.554Z,13.13
2018-12-23T15:24:34.539Z,13.50
2018-12-23T15:26:46.887Z,14.10
2018-12-23T15:29:26.652Z,14.50
2018-12-23T15:32:00.254Z,15.90
2018-12-23T15:37:45.438Z,13.13
2018-12-23T15:40:21.476Z,13.40
2018-12-23T15:43:06.016Z,14.17
2018-12-23T15:49:08.124Z,12.63
2018-12-23T15:51:49.149Z,12.53
2018-12-23T15:55:17.364Z,12.50
2018-12-23T15:57:42.624Z,12.20
2018-12-23T16:00:50.453Z,12.60
2018-12-23T16:03:02.082Z,12.80
2018-12-23T16:05:48.978Z,12.83
2018-12-23T16:08:59.190Z,13.47
2018-12-23T16:14:16.048Z,13.70
2018-12-23T16:17:02.990Z,13.37
2018-12-23T16:19:33.673Z,13.60
2018-12-23T16:22:03.461Z,12.40
2018-12-23T16:24:32.184Z,12.43
2018-12-23T16:27:00.674Z,11.90
2018-12-23T16:29:29.353Z,11.80
2018-12-23T16:31:58.078Z,13.13
2018-12-23T16:34:28.449Z,11.37
2018-12-23T16:36:57.339Z,12.80
2018-12-23T16:39:26.134Z,12.50
2018-12-23T16:41:54.668Z,12.00
2018-12-23T16:44:23.254Z,13.00
2018-12-23T16:46:52.017Z,12.53
2018-12-23T16:49:22.245Z,13.30
2018-12-23T16:51:50.805Z,12.40
2018-12-23T16:54:19.286Z,12.93
2018-12-23T16:56:47.786Z,13.00
2018-12-23T16:59:16.288Z,12.77
2018-12-23T17:01:44.789Z,12.90
2018-12-23T17:04:13.275Z,12.50
2018-12-23T17:06:42.382Z,12.80
2018-12-23T17:09:10.867Z,11.90
2018-12-23T17:11:39.478Z,13.97
2018-12-23T17:14:08.214Z,12.43
2018-12-23T17:16:37.146Z,12.80
2018-12-23T17:19:05.626Z,12.17
2018-12-23T17:21:34.232Z,12.03
2018-12-23T17:24:03.192Z,12.33
2018-12-23T17:26:32.496Z,13.30
2018-12-23T17:29:01.221Z,13.13
2018-12-23T17:31:29.856Z,13.70
2018-12-23T17:33:58.334Z,13.27
2018-12-23T17:36:26.834Z,13.40
2018-12-23T17:38:55.324Z,13.23
2018-12-23T17:41:23.818Z,14.30
2018-12-23T17:43:52.456Z,14.73
2018-12-23T17:46:21.145Z,13.97
2018-12-23T17:48:49.643Z,13.67
2018-12-23T17:51:18.142Z,15.30
2018-12-23T17:53:46.646Z,14.93
2018-12-23T17:56:15.129Z,15.80
2018-12-23T17:58:43.620Z,14.50
2018-12-23T18:01:12.871Z,16.70
2018-12-23T18:03:41.472Z,17.17
2018-12-23T18:06:10.219Z,16.53
2018-12-23T18:08:38.722Z,16.87
2018-12-23T18:11:07.207Z,16.50
2018-12-23T18:13:35.735Z,16.37
2018-12-23T18:16:04.226Z,14.97
2018-12-23T18:18:32.707Z,15.90
2018-12-23T18:21:01.557Z,16.63
2018-12-23T18:23:30.217Z,16.77
2018-12-23T18:25:58.832Z,17.80
2018-12-23T18:28:27.407Z,16.57
2018-12-23T18:30:55.889Z,17.07
2018-12-23T18:33:24.402Z,18.13
2018-12-23T18:35:52.888Z,15.93
2018-12-23T18:38:21.440Z,18.60
2018-12-23T18:40:49.930Z,17.63
2018-12-23T18:43:18.418Z,17.50
2018-12-23T18:45:46.907Z,18.53
2018-12-23T18:48:15.657Z,17.87
2018-12-23T18:50:44.156Z,18.67
2018-12-23T18:53:13.240Z,18.90
2018-12-23T18:55:41.728Z,19.67
2018-12-23T18:58:10.216Z,19.27
2018-12-23T19:00:39.461Z,19.80
2018-12-23T19:03:07.996Z,19.40
2018-12-23T19:05:36.648Z,18.50
2018-12-23T19:08:06.566Z,19.17
2018-12-23T19:10:42.066Z,19.43
2018-12-23T19:13:29.521Z,19.20
2018-12-23T19:16:07.067Z,17.77
2018-12-23T19:18:47.560Z,19.40
2018-12-23T19:21:34.166Z,18.80
2018-12-23T19:24:20.691Z,21.10
2018-12-23T19:26:55.186Z,22.63
2018-12-23T19:29:36.027Z,22.77
2018-12-23T19:32:19.603Z,23.30
2018-12-23T19:35:00.300Z,26.30
2018-12-23T19:37:38.117Z,26.90
2018-12-23T19:40:29.149Z,25.47
2018-12-23T19:43:03.656Z,25.73
2018-12-23T19:45:52.780Z,25.00
2018-12-23T19:48:46.683Z,26.97
2018-12-23T19:51:34.939Z,30.80
2018-12-23T19:54:24.369Z,30.10
2018-12-23T19:57:19.054Z,29.47
2018-12-23T20:00:23.693Z,29.73
2018-12-23T20:03:03.857Z,29.23
2018-12-23T20:06:02.958Z,27.93
2018-12-23T20:08:43.330Z,30.20
2018-12-23T20:11:29.853Z,28.70
2018-12-23T20:14:20.605Z,29.47
2018-12-23T20:17:07.151Z,28.37
2018-12-23T20:19:51.123Z,28.27
2018-12-23T20:22:39.081Z,29.33
2018-12-23T20:25:14.081Z,27.97
2018-12-23T20:28:11.242Z,28.83
2018-12-23T20:30:43.196Z,28.53
2018-12-23T20:33:29.565Z,27.43
2018-12-23T20:36:29.933Z,28.57
2018-12-23T20:39:26.268Z,26.30
2018-12-23T20:42:26.301Z,24.30
2018-12-23T20:45:07.105Z,25.20
2018-12-23T20:47:44.349Z,24.33
2018-12-23T20:50:24.963Z,23.57
2018-12-23T20:53:17.757Z,23.90
2018-12-23T20:55:58.129Z,23.30
2018-12-23T20:58:32.344Z,22.20
2018-12-23T21:01:20.716Z,23.90
2018-12-23T21:03:55.307Z,22.20
2018-12-23T21:06:59.948Z,22.80
2018-12-23T21:09:40.491Z,24.67
2018-12-23T21:12:39.953Z,22.50
2018-12-23T21:15:20.569Z,22.80
2018-12-23T21:17:54.569Z,23.13
2018-12-23T21:20:44.386Z,22.50
2018-12-23T21:23:37.438Z,23.33
2018-12-23T21:26:28.448Z,24.13
2018-12-23T21:29:02.828Z,23.20
2018-12-23T21:31:37.046Z,23.33
2018-12-23T21:34:17.455Z,22.47
2018-12-23T21:37:03.793Z,22.30
2018-12-23T21:39:56.490Z,22.17
2018-12-23T21:42:31.105Z,21.93
2018-12-23T21:45:28.711Z,21.43
2018-12-23T21:48:31.900Z,22.33
2018-12-23T21:51:33.534Z,20.73
2018-12-23T21:54:14.291Z,21.83
2018-12-23T21:57:07.720Z,21.20
2018-12-23T21:59:41.706Z,21.30
2018-12-23T22:02:45.276Z,20.53
2018-12-23T22:05:25.822Z,21.73
2018-12-23T22:08:12.757Z,21.83
2018-12-23T22:10:56.184Z,21.67
2018-12-23T22:13:27.360Z,22.17
2018-12-23T22:15:55.934Z,22.47
2018-12-23T22:18:24.686Z,23.37
2018-12-23T22:20:53.166Z,24.00
2018-12-23T22:23:21.666Z,23.90
2018-12-23T22:25:50.154Z,24.47
2018-12-23T22:28:18.663Z,24.63
2018-12-23T22:30:47.335Z,26.83
2018-12-23T22:33:16.199Z,27.30
2018-12-23T22:35:44.699Z,26.80
2018-12-23T22:38:13.338Z,28.13
2018-12-23T22:40:41.828Z,29.63
2018-12-23T22:43:10.360Z,29.10
2018-12-23T22:45:38.831Z,28.70
2018-12-23T22:48:07.923Z,31.03
2018-12-23T22:50:36.419Z,31.77
2018-12-23T22:53:04.911Z,31.60
2018-12-23T22:55:33.404Z,30.33
2018-12-23T22:58:01.886Z,31.47
2018-12-23T23:00:31.532Z,33.40
2018-12-23T23:03:08.774Z,31.63
2018-12-23T23:05:30.545Z,32.27
2018-12-23T23:07:59.216Z,31.60
2018-12-23T23:10:27.844Z,32.50
2018-12-23T23:12:56.522Z,31.57
2018-12-23T23:15:25.018Z,33.73
2018-12-23T23:17:53.494Z,34.33
2018-12-23T23:20:22.002Z,33.50
2018-12-23T23:22:50.490Z,35.20
2018-12-23T23:25:19.213Z,33.73
2018-12-23T23:27:47.695Z,35.73
2018-12-23T23:30:16.204Z,34.60
2018-12-23T23:32:44.683Z,33.83
2018-12-23T23:35:13.415Z,34.47
2018-12-23T23:37:42.235Z,33.70
2018-12-23T23:40:11.344Z,33.40
2018-12-23T23:42:40.014Z,33.93
2018-12-23T23:45:08.506Z,33.90
2018-12-23T23:47:37.403Z,34.07
2018-12-23T23:50:06.557Z,33.23
2018-12-23T23:52:35.933Z,34.00
2018-12-23T23:55:04.594Z,33.50
2018-12-23T23:57:33.584Z,34.27
